Time;durP1;ratioP1;P1;durP2;ratioP2;P2;SDS_P1;SDS_P2;PMS_P1;PMS_P2;Temp;Humidity;BMP_temperature;BMP_pressure;BME280_temperature;BME280_humidity;BME280_pressure;Samples;Min_cycle;Max_cycle;Signal;HPM_P1;HPM_P2
2023/07/21 04:02:42;;;;;;;2.00;1.67;;;13.60;97.30;;;;;;5092215;23;20625;-85
2023/07/21 04:05:09;;;;;;;3.73;2.57;;;13.60;97.30;;;;;;5022508;28;20522;-85
2023/07/21 04:07:35;;;;;;;2.73;2.17;;;13.60;97.30;;;;;;5027694;28;20487;-84
2023/07/21 04:10:01;;;;;;;2.13;1.97;;;13.60;97.30;;;;;;5020705;28;20909;-85
2023/07/21 04:12:28;;;;;;;1.87;1.50;;;13.70;97.30;;;;;;5008052;28;20201;-85
2023/07/21 04:15:01;;;;;;;2.80;2.60;;;13.70;97.30;;;;;;5000237;28;20188;-85
2023/07/21 04:17:27;;;;;;;1.40;1.37;;;13.80;97.30;;;;;;5011207;28;20416;-85
2023/07/21 04:19:52;;;;;;;5.77;3.97;;;13.80;97.30;;;;;;5009581;28;20447;-85
2023/07/21 04:22:21;;;;;;;2.83;1.67;;;13.90;97.30;;;;;;5005813;28;20682;-84
2023/07/21 04:24:48;;;;;;;3.30;3.10;;;13.90;97.30;;;;;;5013620;28;20193;-85
2023/07/21 04:27:16;;;;;;;1.47;1.40;;;14.00;97.30;;;;;;5002888;28;20508;-85
2023/07/21 04:29:41;;;;;;;2.60;2.40;;;14.00;97.30;;;;;;4999673;28;20503;-85
2023/07/21 04:32:09;;;;;;;2.00;1.63;;;14.00;97.30;;;;;;5012899;28;20468;-85
2023/07/21 04:34:35;;;;;;;8.53;2.87;;;14.10;97.30;;;;;;5002422;28;20237;-86
2023/07/21 04:37:00;;;;;;;2.60;2.33;;;14.10;97.30;;;;;;5006139;28;20463;-83
2023/07/21 04:39:26;;;;;;;2.63;2.43;;;14.20;97.30;;;;;;5004777;28;20181;-85
2023/07/21 04:41:52;;;;;;;5.47;4.27;;;14.20;97.30;;;;;;5005921;28;20733;-85
2023/07/21 04:44:20;;;;;;;2.97;2.00;;;14.20;97.30;;;;;;5009060;28;20252;-85
2023/07/21 04:46:46;;;;;;;4.53;2.70;;;14.30;97.30;;;;;;4997749;28;20192;-86
2023/07/21 04:49:13;;;;;;;4.23;2.00;;;14.30;97.30;;;;;;4997543;28;20471;-86
2023/07/21 04:51:38;;;;;;;1.90;1.63;;;14.40;97.30;;;;;;5004173;28;20467;-85
2023/07/21 04:54:04;;;;;;;2.30;1.80;;;14.40;97.30;;;;;;5002373;28;20424;-84
2023/07/21 04:56:29;;;;;;;2.00;1.90;;;14.40;97.30;;;;;;5005335;28;20204;-85
2023/07/21 04:58:55;;;;;;;5.43;2.80;;;14.40;97.30;;;;;;5005401;28;20601;-85
2023/07/21 05:01:21;;;;;;;2.67;1.50;;;14.50;97.30;;;;;;5013320;28;20468;-85
2023/07/21 05:03:46;;;;;;;2.33;2.13;;;14.50;97.30;;;;;;5009430;28;20185;-85
2023/07/21 05:06:12;;;;;;;2.60;1.60;;;14.50;97.30;;;;;;5011036;28;20240;-85
2023/07/21 05:08:37;;;;;;;1.77;1.73;;;14.60;97.30;;;;;;5004723;28;20628;-85
2023/07/21 05:11:03;;;;;;;1.93;1.80;;;14.60;97.30;;;;;;5007763;28;20706;-85
2023/07/21 05:13:28;;;;;;;4.80;2.40;;;14.70;97.30;;;;;;5010749;28;20198;-83
2023/07/21 05:15:58;;;;;;;5.60;2.10;;;14.70;97.30;;;;;;5004661;28;20178;-85
2023/07/21 05:18:23;;;;;;;4.03;2.77;;;14.80;97.30;;;;;;5011926;28;20197;-83
2023/07/21 05:20:49;;;;;;;5.67;3.53;;;14.80;97.30;;;;;;5014008;28;20452;-84
2023/07/21 05:23:16;;;;;;;2.47;1.90;;;14.90;97.30;;;;;;5013278;28;20185;-84
2023/07/21 05:25:41;;;;;;;5.00;1.43;;;14.90;97.30;;;;;;5013064;28;20232;-85
2023/07/21 05:28:08;;;;;;;3.67;2.17;;;15.00;97.30;;;;;;5005879;28;20706;-86
2023/07/21 05:30:37;;;;;;;4.13;1.90;;;15.00;97.30;;;;;;5006388;28;20279;-82
2023/07/21 05:33:02;;;;;;;2.60;2.43;;;15.10;97.30;;;;;;5009633;28;20416;-85
2023/07/21 05:35:31;;;;;;;1.90;1.80;;;15.20;97.30;;;;;;5002698;28;20433;-85
2023/07/21 05:37:56;;;;;;;4.60;1.83;;;15.20;97.30;;;;;;4999729;28;20235;-84
2023/07/21 05:40:22;;;;;;;5.33;3.70;;;15.30;97.30;;;;;;5001572;28;20503;-85
2023/07/21 05:42:48;;;;;;;2.20;2.03;;;15.30;97.30;;;;;;5007857;28;20193;-83
2023/07/21 05:45:15;;;;;;;1.63;1.53;;;15.40;97.30;;;;;;5003742;28;20187;-86
2023/07/21 05:47:41;;;;;;;1.90;1.80;;;15.40;97.30;;;;;;4999635;28;20490;-85
2023/07/21 05:50:07;;;;;;;2.43;2.23;;;15.50;97.30;;;;;;4998188;28;20555;-86
2023/07/21 05:52:33;;;;;;;1.83;1.50;;;15.60;97.30;;;;;;5008836;28;20202;-85
2023/07/21 05:54:59;;;;;;;3.80;2.37;;;15.70;97.30;;;;;;4999216;28;20519;-85
2023/07/21 05:57:24;;;;;;;2.50;2.30;;;15.70;97.30;;;;;;5003472;28;20181;-86
2023/07/21 05:59:50;;;;;;;2.90;2.23;;;15.80;97.30;;;;;;5001461;28;20190;-85
2023/07/21 06:02:15;;;;;;;5.03;1.60;;;15.90;97.30;;;;;;5008036;28;20240;-86
2023/07/21 06:04:42;;;;;;;2.33;2.00;;;16.00;97.30;;;;;;5004690;28;20181;-85
2023/07/21 06:07:10;;;;;;;3.63;2.40;;;16.10;97.30;;;;;;4999365;28;20244;-86
2023/07/21 06:09:38;;;;;;;2.53;2.33;;;16.20;97.30;;;;;;5007277;28;20428;-86
2023/07/21 06:12:10;;;;;;;1.83;1.73;;;16.30;97.30;;;;;;5001059;28;20441;-86
2023/07/21 06:14:43;;;;;;;1.80;1.70;;;16.40;97.30;;;;;;4993011;28;20970;-86
2023/07/21 06:17:11;;;;;;;4.97;3.60;;;16.50;97.30;;;;;;4996001;28;20512;-86
2023/07/21 06:19:38;;;;;;;2.00;1.90;;;16.50;97.30;;;;;;4997200;28;20422;-86
2023/07/21 06:22:04;;;;;;;1.70;1.60;;;16.60;97.30;;;;;;5004265;28;20463;-86
2023/07/21 06:24:30;;;;;;;2.33;2.13;;;16.60;97.30;;;;;;4994527;28;20420;-86
2023/07/21 06:26:55;;;;;;;1.50;1.40;;;16.70;97.30;;;;;;4993719;28;20847;-85
2023/07/21 06:29:21;;;;;;;3.10;1.90;;;16.80;97.30;;;;;;4993045;28;20683;-86
2023/07/21 06:31:51;;;;;;;2.30;1.80;;;16.80;97.30;;;;;;4992652;28;20217;-86
2023/07/21 06:34:16;;;;;;;1.83;1.73;;;16.90;97.30;;;;;;5001921;28;20188;-86
2023/07/21 06:36:42;;;;;;;3.80;2.50;;;16.90;97.30;;;;;;4991742;28;20433;-86
2023/07/21 06:39:10;;;;;;;3.40;2.13;;;17.00;97.30;;;;;;5007318;28;20179;-86
2023/07/21 06:41:38;;;;;;;3.43;2.37;;;17.00;97.30;;;;;;5000200;28;20209;-86
2023/07/21 06:44:06;;;;;;;1.03;1.00;;;17.00;97.30;;;;;;4998194;28;20459;-85
2023/07/21 06:46:31;;;;;;;1.57;1.47;;;17.10;97.30;;;;;;5001370;28;20424;-85
2023/07/21 06:48:59;;;;;;;2.63;2.27;;;17.10;97.30;;;;;;4996484;28;20579;-86
2023/07/21 06:51:25;;;;;;;1.27;1.17;;;17.20;97.30;;;;;;5001849;28;20228;-85
2023/07/21 06:53:51;;;;;;;4.13;2.47;;;17.20;97.30;;;;;;5004263;28;20880;-85
2023/07/21 06:56:18;;;;;;;1.70;1.60;;;17.20;97.30;;;;;;5003914;28;20637;-86
2023/07/21 06:58:51;;;;;;;1.83;1.67;;;17.30;97.30;;;;;;5003453;28;20188;-86
2023/07/21 07:01:19;;;;;;;3.97;2.40;;;17.40;97.30;;;;;;5005412;28;20775;-86
2023/07/21 07:03:47;;;;;;;2.27;2.07;;;17.40;97.30;;;;;;5019166;28;20427;-86
2023/07/21 07:06:12;;;;;;;6.50;2.07;;;17.40;97.30;;;;;;5003883;28;20444;-86
2023/07/21 07:08:40;;;;;;;1.20;1.10;;;17.50;97.30;;;;;;5016915;28;20420;-86
2023/07/21 07:11:11;;;;;;;3.47;2.43;;;17.50;97.30;;;;;;5014067;28;20253;-85
2023/07/21 07:13:39;;;;;;;5.43;1.77;;;17.50;97.30;;;;;;5013153;28;20578;-85
2023/07/21 07:16:09;;;;;;;2.50;1.73;;;17.60;97.30;;;;;;5013325;28;20416;-86
2023/07/21 07:18:37;;;;;;;3.07;2.87;;;17.60;97.30;;;;;;5012795;28;20544;-85
2023/07/21 07:21:03;;;;;;;2.37;2.13;;;17.70;97.30;;;;;;5016855;28;20427;-84
2023/07/21 07:23:29;;;;;;;2.27;2.00;;;17.70;97.30;;;;;;5013900;28;20454;-86
2023/07/21 07:25:57;;;;;;;2.40;2.23;;;17.70;97.30;;;;;;5011166;28;20483;-85
2023/07/21 07:28:22;;;;;;;2.07;1.93;;;17.80;97.30;;;;;;5007088;28;20186;-85
2023/07/21 07:30:50;;;;;;;1.70;1.60;;;17.80;97.30;;;;;;5006072;28;20478;-85
2023/07/21 07:33:16;;;;;;;2.17;2.00;;;17.80;97.30;;;;;;5003956;28;20197;-87
2023/07/21 07:35:50;;;;;;;4.30;3.63;;;17.90;97.30;;;;;;5012784;28;21048;-87
2023/07/21 07:38:24;;;;;;;8.70;1.73;;;18.00;97.30;;;;;;5013301;28;20177;-87
2023/07/21 07:40:50;;;;;;;3.23;2.50;;;18.00;97.30;;;;;;5000664;28;20439;-86
2023/07/21 07:43:16;;;;;;;3.43;2.00;;;18.10;97.30;;;;;;5007015;28;20425;-90
2023/07/21 07:45:43;;;;;;;2.63;2.27;;;18.10;97.30;;;;;;5009866;28;20511;-87
2023/07/21 07:48:11;;;;;;;2.07;1.90;;;18.10;97.30;;;;;;5005815;28;20185;-87
2023/07/21 07:50:41;;;;;;;1.63;1.53;;;18.20;97.30;;;;;;5003070;28;20487;-86
2023/07/21 07:53:09;;;;;;;3.40;3.20;;;18.20;97.30;;;;;;4998224;28;20455;-87
2023/07/21 07:55:43;;;;;;;3.40;2.60;;;18.30;97.30;;;;;;5008531;28;20425;-87
2023/07/21 07:58:09;;;;;;;2.00;1.90;;;18.30;97.30;;;;;;5026832;28;20435;-87
2023/07/21 08:00:38;;;;;;;3.80;3.27;;;18.30;97.30;;;;;;5004382;28;20417;-87
2023/07/21 08:03:07;;;;;;;2.43;2.23;;;18.40;97.30;;;;;;4998063;28;20520;-87
2023/07/21 08:05:43;;;;;;;3.63;2.50;;;18.40;97.30;;;;;;4997663;28;20464;-87
2023/07/21 08:08:09;;;;;;;3.80;3.13;;;18.40;97.30;;;;;;5007249;28;20428;-87
2023/07/21 08:10:39;;;;;;;2.17;2.00;;;18.40;97.30;;;;;;5001091;28;20519;-87
2023/07/21 08:13:08;;;;;;;3.33;3.13;;;18.30;97.30;;;;;;5015426;28;20181;-86
2023/07/21 08:15:42;;;;;;;2.93;2.73;;;18.30;97.30;;;;;;5013194;28;20418;-87
2023/07/21 08:18:11;;;;;;;4.97;2.47;;;18.20;97.30;;;;;;5006703;28;20422;-87
2023/07/21 08:20:40;;;;;;;2.80;1.60;;;18.20;97.30;;;;;;5006447;28;20500;-87
2023/07/21 08:23:09;;;;;;;1.30;1.20;;;18.10;97.30;;;;;;5003722;28;20500;-87
2023/07/21 08:25:41;;;;;;;4.30;1.40;;;18.00;97.30;;;;;;5003094;28;20429;-87
2023/07/21 08:28:09;;;;;;;2.87;2.13;;;18.00;97.30;;;;;;5006809;28;20420;-88
2023/07/21 08:30:42;;;;;;;2.70;1.90;;;17.90;97.30;;;;;;4999644;28;20471;-88
2023/07/21 08:33:08;;;;;;;2.90;2.47;;;17.80;97.30;;;;;;5000470;28;20417;-88
2023/07/21 08:35:38;;;;;;;3.37;2.63;;;17.70;97.30;;;;;;5001673;28;20419;-88
2023/07/21 08:38:11;;;;;;;14.70;2.43;;;17.70;97.30;;;;;;4999632;28;20188;-88
2023/07/21 08:40:42;;;;;;;2.87;1.73;;;17.70;97.30;;;;;;4995532;28;20504;-86
2023/07/21 08:43:08;;;;;;;3.13;3.00;;;17.70;97.30;;;;;;4992890;28;20428;-89
2023/07/21 08:45:34;;;;;;;4.00;3.17;;;17.70;97.30;;;;;;4992303;28;20421;-88
2023/07/21 08:48:06;;;;;;;1.77;1.67;;;17.80;97.30;;;;;;4998140;28;20456;-89
2023/07/21 08:50:33;;;;;;;2.03;1.83;;;17.80;97.30;;;;;;4994679;28;20503;-89
2023/07/21 08:52:59;;;;;;;15.03;3.87;;;17.80;97.30;;;;;;4992905;28;20413;-88
2023/07/21 08:55:25;;;;;;;5.23;3.03;;;17.90;97.30;;;;;;5005958;28;20444;-88
2023/07/21 08:57:57;;;;;;;2.23;2.07;;;17.80;97.30;;;;;;4992299;28;20229;-89
2023/07/21 09:00:31;;;;;;;2.80;2.20;;;17.80;97.30;;;;;;4993014;28;20428;-88
2023/07/21 09:03:01;;;;;;;4.60;3.97;;;17.80;97.30;;;;;;4993170;28;20491;-88
2023/07/21 09:05:27;;;;;;;2.70;2.50;;;17.80;97.30;;;;;;4995871;28;20421;-88
2023/07/21 09:07:53;;;;;;;6.47;2.93;;;17.80;97.30;;;;;;5001791;28;20537;-88
2023/07/21 09:10:39;;;;;;;3.53;2.77;;;17.80;97.30;;;;;;4995390;28;20218;-88
2023/07/21 09:13:14;;;;;;;4.83;2.63;;;17.70;97.30;;;;;;5007481;28;20185;-89
2023/07/21 09:15:40;;;;;;;2.90;1.80;;;17.80;97.30;;;;;;5004083;28;20456;-88
2023/07/21 09:18:08;;;;;;;3.13;2.53;;;17.70;97.30;;;;;;5002756;28;21041;-88
2023/07/21 09:20:34;;;;;;;2.50;2.37;;;17.70;97.30;;;;;;4995657;28;20185;-88
2023/07/21 09:22:59;;;;;;;2.07;1.93;;;17.70;97.30;;;;;;4994689;28;20943;-89
2023/07/21 09:25:25;;;;;;;6.00;2.37;;;17.80;97.30;;;;;;4994910;28;20201;-88
2023/07/21 09:27:55;;;;;;;2.77;2.67;;;17.80;97.30;;;;;;5004200;28;20206;-88
2023/07/21 09:30:22;;;;;;;2.03;1.90;;;17.90;97.30;;;;;;5003431;28;20205;-88
2023/07/21 09:32:55;;;;;;;3.60;2.23;;;17.90;97.30;;;;;;4995259;28;20484;-88
2023/07/21 09:35:21;;;;;;;3.43;3.00;;;18.00;97.30;;;;;;5007242;28;20428;-89
2023/07/21 09:37:51;;;;;;;6.23;3.73;;;18.00;97.30;;;;;;4994738;28;20490;-88
2023/07/21 09:40:17;;;;;;;25.93;4.20;;;18.10;97.30;;;;;;4995903;28;20280;-88
2023/07/21 09:42:43;;;;;;;19.33;3.03;;;18.20;97.30;;;;;;5003376;28;20999;-88
2023/07/21 09:45:09;;;;;;;8.50;2.60;;;18.20;97.30;;;;;;4995920;28;20420;-89
2023/07/21 09:47:40;;;;;;;5.60;3.27;;;18.30;97.30;;;;;;4997759;28;20421;-88
2023/07/21 09:50:06;;;;;;;1.77;1.73;;;18.40;97.30;;;;;;5011540;28;20854;-88
2023/07/21 09:52:37;;;;;;;4.70;3.07;;;18.40;97.30;;;;;;5004166;28;20449;-87
2023/07/21 09:55:19;;;;;;;4.40;3.30;;;18.50;97.30;;;;;;5000843;28;20173;-88
2023/07/21 09:57:53;;;;;;;4.27;3.43;;;18.50;97.30;;;;;;5005230;28;20409;-88
2023/07/21 10:00:20;;;;;;;3.40;2.87;;;18.60;97.30;;;;;;4996592;28;20428;-88
2023/07/21 10:02:51;;;;;;;7.90;3.00;;;18.60;97.30;;;;;;5007200;28;20475;-88
2023/07/21 10:05:19;;;;;;;4.93;3.10;;;18.70;97.30;;;;;;5011981;28;20477;-88
2023/07/21 10:08:03;;;;;;;5.93;3.63;;;18.60;97.30;;;;;;5012956;28;20430;-88
2023/07/21 10:10:29;;;;;;;2.40;2.07;;;18.60;97.30;;;;;;5006095;28;20843;-88
2023/07/21 10:13:06;;;;;;;4.17;2.23;;;18.60;97.30;;;;;;4995528;28;20413;-88
2023/07/21 10:15:33;;;;;;;3.27;3.13;;;18.70;97.30;;;;;;4995963;28;20178;-88
2023/07/21 10:18:52;;;;;;;2.70;2.50;;;18.70;97.30;;;;;;5003512;28;20423;-88
2023/07/21 10:21:19;;;;;;;3.40;2.40;;;18.70;97.30;;;;;;5008865;28;20448;-88
2023/07/21 10:23:51;;;;;;;4.60;2.80;;;18.80;97.30;;;;;;4996018;28;20433;-88
2023/07/21 10:26:19;;;;;;;3.07;2.67;;;18.80;97.30;;;;;;4996422;28;20456;-88
2023/07/21 10:28:51;;;;;;;2.57;2.10;;;18.80;97.30;;;;;;4997621;28;20484;-88
2023/07/21 10:31:25;;;;;;;3.03;2.30;;;18.80;97.30;;;;;;5000362;28;20559;-87
2023/07/21 10:34:11;;;;;;;5.03;2.80;;;18.80;97.30;;;;;;4997703;28;20478;-88
2023/07/21 10:36:52;;;;;;;2.60;2.10;;;18.80;97.30;;;;;;5002882;28;20589;-88
2023/07/21 10:39:32;;;;;;;3.00;2.23;;;18.80;97.30;;;;;;4994982;28;20854;-88
2023/07/21 10:42:06;;;;;;;2.83;2.50;;;18.70;97.30;;;;;;4995658;28;20479;-88
2023/07/21 10:44:31;;;;;;;8.93;4.17;;;18.70;97.30;;;;;;4995064;28;20512;-88
2023/07/21 10:46:59;;;;;;;2.50;2.30;;;18.60;97.30;;;;;;5004085;28;20468;-88
2023/07/21 10:49:38;;;;;;;3.63;2.77;;;18.60;97.30;;;;;;4998863;28;20205;-88
2023/07/21 10:52:12;;;;;;;3.10;2.43;;;18.50;97.30;;;;;;5012836;28;20478;-88
2023/07/21 10:54:40;;;;;;;3.83;2.50;;;18.50;97.30;;;;;;5009119;28;20442;-88
2023/07/21 10:57:08;;;;;;;4.40;3.07;;;18.40;97.30;;;;;;5003489;28;20416;-89
2023/07/21 10:59:35;;;;;;;3.53;3.40;;;18.40;97.30;;;;;;5007286;28;20506;-89
2023/07/21 11:02:02;;;;;;;4.37;3.20;;;18.40;97.30;;;;;;4994436;28;20473;-89
2023/07/21 11:04:29;;;;;;;4.57;2.70;;;18.30;97.30;;;;;;4994074;28;20437;-89
2023/07/21 11:06:57;;;;;;;6.83;3.63;;;18.30;97.30;;;;;;4994228;28;20945;-89
2023/07/21 11:09:23;;;;;;;5.53;2.10;;;18.20;97.30;;;;;;5000900;28;20432;-89
2023/07/21 11:11:51;;;;;;;4.40;2.40;;;18.20;97.30;;;;;;5005386;28;20476;-89
2023/07/21 11:14:20;;;;;;;3.90;2.93;;;18.20;97.30;;;;;;4994760;28;21046;-89
2023/07/21 11:16:57;;;;;;;8.10;4.43;;;18.20;97.30;;;;;;5001818;28;20419;-89
2023/07/21 11:19:26;;;;;;;3.70;2.53;;;18.20;97.30;;;;;;5004561;28;20504;-89
2023/07/21 11:21:55;;;;;;;5.00;3.33;;;18.10;97.30;;;;;;5002265;28;20453;-89
2023/07/21 11:24:23;;;;;;;3.00;1.97;;;18.10;97.30;;;;;;4999207;28;20431;-88
2023/07/21 11:26:49;;;;;;;1.97;1.70;;;18.10;97.30;;;;;;5003329;28;20417;-89
2023/07/21 11:29:16;;;;;;;4.83;3.10;;;18.10;97.30;;;;;;4993744;28;20803;-89
2023/07/21 11:31:42;;;;;;;4.47;2.87;;;18.10;97.30;;;;;;5009163;28;20471;-89
2023/07/21 11:34:37;;;;;;;6.03;3.23;;;18.10;97.30;;;;;;4993891;28;20421;-89
2023/07/21 11:37:03;;;;;;;3.70;2.70;;;18.10;97.30;;;;;;5002096;28;20413;-91
2023/07/21 11:39:30;;;;;;;2.77;2.57;;;18.10;97.30;;;;;;4997607;28;20475;-89
2023/07/21 11:41:59;;;;;;;2.13;1.90;;;18.10;97.30;;;;;;5004103;28;20525;-90
2023/07/21 11:44:30;;;;;;;2.87;2.67;;;18.10;97.30;;;;;;5012965;28;20710;-90
2023/07/21 11:47:10;;;;;;;2.57;2.37;;;18.00;97.30;;;;;;4993637;28;20881;-89
2023/07/21 11:49:40;;;;;;;2.20;2.03;;;18.00;97.30;;;;;;4993275;28;20428;-89
2023/07/21 11:52:07;;;;;;;5.13;2.70;;;18.00;97.30;;;;;;5005435;28;20464;-90
2023/07/21 11:54:42;;;;;;;2.87;2.67;;;17.90;97.30;;;;;;4996589;28;20472;-90
2023/07/21 11:57:09;;;;;;;2.77;1.77;;;17.90;97.30;;;;;;4992576;28;20941;-90
2023/07/21 11:59:35;;;;;;;2.50;1.83;;;17.80;97.30;;;;;;4994403;28;20456;-91
2023/07/21 12:02:06;;;;;;;5.80;2.20;;;17.80;97.30;;;;;;4993020;28;20479;-90
2023/07/21 12:04:33;;;;;;;2.43;2.23;;;17.80;97.30;;;;;;4994606;28;20795;-90
2023/07/21 12:06:59;;;;;;;2.30;2.07;;;17.80;97.30;;;;;;4993141;28;20882;-90
2023/07/21 12:09:25;;;;;;;2.20;2.00;;;17.80;97.30;;;;;;5000873;28;20474;-90
2023/07/21 12:11:54;;;;;;;2.33;1.90;;;17.80;97.30;;;;;;5003618;28;20303;-91
2023/07/21 12:14:19;;;;;;;3.07;2.00;;;17.80;97.30;;;;;;4992775;28;20205;-90
2023/07/21 12:16:45;;;;;;;2.30;2.10;;;17.80;97.30;;;;;;5001047;28;20463;-91
2023/07/21 12:19:11;;;;;;;3.03;1.73;;;17.80;97.30;;;;;;5001377;28;20663;-89
2023/07/21 12:21:40;;;;;;;10.93;2.07;;;17.70;97.30;;;;;;4992670;28;20205;-90
2023/07/21 12:24:06;;;;;;;1.87;1.50;;;17.70;97.30;;;;;;4992893;28;20457;-90
2023/07/21 12:26:32;;;;;;;2.40;1.70;;;17.70;97.30;;;;;;4999760;28;20428;-90
2023/07/21 12:29:00;;;;;;;4.30;1.57;;;17.70;97.30;;;;;;4994117;28;20419;-90
2023/07/21 12:31:26;;;;;;;1.90;1.80;;;17.70;97.30;;;;;;4992378;28;20228;-90
2023/07/21 12:33:51;;;;;;;3.37;2.67;;;17.70;97.30;;;;;;4992931;28;20837;-90
2023/07/21 12:36:20;;;;;;;1.70;1.60;;;17.70;97.30;;;;;;4999052;28;20185;-90
2023/07/21 12:38:46;;;;;;;1.87;1.30;;;17.70;97.30;;;;;;5006202;28;20189;-90
2023/07/21 12:41:12;;;;;;;5.37;3.03;;;17.70;97.30;;;;;;4996356;28;20538;-88
2023/07/21 12:43:37;;;;;;;1.90;1.80;;;17.70;97.30;;;;;;5002446;28;20483;-90
2023/07/21 12:46:06;;;;;;;2.30;2.07;;;17.80;97.30;;;;;;5009538;28;20424;-92
2023/07/21 12:48:33;;;;;;;1.87;1.77;;;17.80;97.30;;;;;;5009011;28;20654;-89
2023/07/21 12:51:00;;;;;;;2.03;1.90;;;17.80;97.30;;;;;;5009813;28;20985;-90
2023/07/21 12:53:26;;;;;;;5.53;1.93;;;17.90;97.30;;;;;;5005713;28;20443;-87
2023/07/21 12:55:51;;;;;;;1.77;1.43;;;18.00;97.30;;;;;;5002468;28;20420;-89
2023/07/21 12:58:18;;;;;;;2.80;1.50;;;18.00;97.30;;;;;;5010586;28;20231;-90
2023/07/21 13:00:50;;;;;;;1.13;1.03;;;18.10;97.30;;;;;;4994298;28;20583;-90
2023/07/21 13:03:15;;;;;;;2.27;2.13;;;18.20;97.30;;;;;;4993352;28;20429;-89
2023/07/21 13:05:41;;;;;;;1.37;1.00;;;18.30;97.30;;;;;;5008243;28;20454;-89
2023/07/21 13:08:09;;;;;;;1.73;1.63;;;18.30;97.30;;;;;;5004125;28;20218;-89
2023/07/21 13:10:43;;;;;;;1.40;1.30;;;18.50;97.30;;;;;;4997406;28;20217;-90
2023/07/21 13:13:08;;;;;;;3.30;1.57;;;18.60;97.30;;;;;;4995395;28;20992;-90
2023/07/21 13:15:34;;;;;;;1.93;1.83;;;18.60;97.30;;;;;;5005673;28;20429;-91
2023/07/21 13:18:00;;;;;;;1.50;1.40;;;18.70;97.30;;;;;;4999738;28;20666;-89
2023/07/21 13:20:25;;;;;;;3.03;2.30;;;19.00;97.30;;;;;;4991860;28;20670;-91
2023/07/21 13:22:51;;;;;;;1.23;1.13;;;19.30;97.30;;;;;;5009277;28;20181;-90
2023/07/21 13:25:19;;;;;;;2.60;2.07;;;19.60;97.30;;;;;;4992427;28;20613;-90
2023/07/21 13:27:45;;;;;;;1.37;1.37;;;19.80;97.30;;;;;;4995865;28;20236;-90
2023/07/21 13:30:11;;;;;;;2.63;1.40;;;20.10;97.30;;;;;;5003796;28;20475;-90
2023/07/21 13:32:37;;;;;;;1.73;1.57;;;20.30;97.30;;;;;;5008010;28;20555;-91
2023/07/21 13:35:03;;;;;;;1.27;1.10;;;20.50;97.30;;;;;;5003194;28;20173;-89
2023/07/21 13:37:28;;;;;;;4.00;2.33;;;20.70;97.30;;;;;;5009157;28;20205;-89
2023/07/21 13:39:54;;;;;;;4.30;1.83;;;20.80;97.30;;;;;;4996720;28;20962;-90
2023/07/21 13:42:20;;;;;;;2.13;1.60;;;21.00;97.30;;;;;;5001044;28;20197;-88
2023/07/21 13:44:48;;;;;;;1.40;1.30;;;21.20;97.30;;;;;;5007365;28;20180;-89
2023/07/21 13:47:21;;;;;;;3.83;1.63;;;21.30;97.30;;;;;;4999480;28;20464;-89
2023/07/21 13:49:49;;;;;;;2.00;1.87;;;21.50;97.30;;;;;;5005899;28;20420;-88
2023/07/21 13:52:17;;;;;;;0.97;0.93;;;21.70;97.30;;;;;;5006173;28;20459;-89
2023/07/21 13:54:43;;;;;;;1.50;1.40;;;21.90;97.10;;;;;;5002884;28;20432;-85
2023/07/21 13:57:09;;;;;;;4.93;1.40;;;22.00;97.30;;;;;;5010953;28;20431;-88
2023/07/21 13:59:37;;;;;;;1.73;1.63;;;22.20;95.60;;;;;;5004868;28;20417;-90
2023/07/21 14:02:04;;;;;;;1.00;0.90;;;22.40;94.40;;;;;;5008593;28;20640;-91
2023/07/21 14:04:30;;;;;;;1.60;1.50;;;22.50;94.20;;;;;;4995826;28;20432;-89
2023/07/21 14:07:00;;;;;;;1.03;1.00;;;22.60;93.40;;;;;;5006375;28;20439;-88
2023/07/21 14:09:33;;;;;;;1.67;1.00;;;22.60;90.80;;;;;;5005828;28;20204;-88
2023/07/21 14:12:01;;;;;;;8.13;1.50;;;22.70;89.90;;;;;;5001543;28;20472;-87
2023/07/21 14:14:26;;;;;;;1.73;1.47;;;22.80;91.00;;;;;;5005347;28;20416;-86
2023/07/21 14:16:52;;;;;;;1.40;1.30;;;23.00;91.10;;;;;;4998076;28;20472;-87
2023/07/21 14:19:17;;;;;;;1.17;1.07;;;23.10;87.80;;;;;;5001958;28;20189;-84
2023/07/21 14:21:43;;;;;;;2.07;1.63;;;23.00;87.70;;;;;;5006262;28;20243;-87
2023/07/21 14:24:11;;;;;;;0.90;0.90;;;22.90;88.90;;;;;;5009588;28;20290;-86
2023/07/21 14:26:39;;;;;;;2.37;1.63;;;22.80;88.50;;;;;;5004783;28;20189;-86
2023/07/21 14:29:12;;;;;;;4.83;1.63;;;22.60;88.70;;;;;;5005223;28;20435;-87
2023/07/21 14:31:40;;;;;;;1.70;1.60;;;22.50;89.80;;;;;;5007066;28;20769;-87
2023/07/21 14:34:13;;;;;;;1.40;1.30;;;22.50;87.90;;;;;;5005518;28;20431;-87
2023/07/21 14:36:41;;;;;;;1.43;1.00;;;22.40;87.70;;;;;;5014604;28;20432;-87
2023/07/21 14:39:08;;;;;;;1.17;0.90;;;22.30;87.60;;;;;;5006421;28;20432;-86
2023/07/21 14:41:39;;;;;;;1.43;1.00;;;22.10;87.20;;;;;;5006427;28;20597;-87
2023/07/21 14:44:07;;;;;;;1.00;0.93;;;22.00;87.80;;;;;;5014972;28;20416;-87
2023/07/21 14:46:33;;;;;;;2.23;1.30;;;21.90;88.90;;;;;;5017253;28;20452;-87
2023/07/21 14:49:04;;;;;;;1.47;1.20;;;21.90;89.60;;;;;;5012884;28;20433;-87
2023/07/21 14:51:30;;;;;;;1.53;1.03;;;21.90;89.70;;;;;;5007807;28;20206;-86
2023/07/21 14:54:02;;;;;;;1.10;1.00;;;21.90;89.20;;;;;;5005798;28;20523;-87
2023/07/21 14:56:31;;;;;;;2.63;1.03;;;21.80;89.10;;;;;;5006054;28;20363;-87
2023/07/21 14:59:00;;;;;;;1.37;1.27;;;21.80;89.10;;;;;;5014029;28;20609;-87
2023/07/21 15:01:31;;;;;;;1.30;1.20;;;21.90;90.10;;;;;;5012417;28;20536;-87
2023/07/21 15:03:59;;;;;;;1.17;0.90;;;22.10;89.40;;;;;;5005677;28;20420;-87
2023/07/21 15:06:30;;;;;;;1.33;1.10;;;22.50;89.70;;;;;;5020306;28;20421;-87
2023/07/21 15:09:00;;;;;;;2.07;1.30;;;22.70;87.30;;;;;;5012658;28;20470;-87
2023/07/21 15:11:33;;;;;;;2.47;2.27;;;22.80;87.40;;;;;;5008952;28;20469;-86
2023/07/21 15:14:01;;;;;;;1.30;1.17;;;22.80;86.90;;;;;;5013388;28;20416;-87
2023/07/21 15:16:29;;;;;;;1.57;1.53;;;22.60;87.30;;;;;;5012633;28;20449;-87
2023/07/21 15:19:02;;;;;;;1.23;1.13;;;22.50;87.10;;;;;;5009174;28;20420;-87
2023/07/21 15:21:31;;;;;;;2.80;1.07;;;22.40;87.50;;;;;;5010977;28;20440;-87
2023/07/21 15:23:59;;;;;;;1.30;1.20;;;22.20;87.50;;;;;;5003275;28;20444;-87
2023/07/21 15:26:30;;;;;;;2.87;1.83;;;22.20;88.00;;;;;;5014840;28;20420;-87
2023/07/21 15:29:00;;;;;;;1.37;1.27;;;22.10;87.10;;;;;;5021799;28;20420;-87
2023/07/21 15:31:28;;;;;;;1.23;1.13;;;22.00;87.00;;;;;;5015159;28;20956;-88
2023/07/21 15:33:59;;;;;;;1.33;1.23;;;21.90;87.00;;;;;;5006746;28;20410;-87
2023/07/21 15:36:30;;;;;;;1.77;1.40;;;21.80;87.50;;;;;;5002497;28;20434;-87
2023/07/21 15:39:03;;;;;;;1.17;1.00;;;21.70;87.50;;;;;;5003499;28;20413;-87
2023/07/21 15:41:31;;;;;;;1.67;1.57;;;21.70;87.00;;;;;;5011559;28;20452;-87
2023/07/21 15:44:00;;;;;;;1.37;1.10;;;21.60;86.20;;;;;;5002833;28;20516;-86
2023/07/21 15:46:27;;;;;;;0.93;0.83;;;21.40;85.30;;;;;;4999862;28;20938;-86
2023/07/21 15:48:52;;;;;;;1.17;1.07;;;21.30;85.80;;;;;;5008178;28;20437;-86
2023/07/21 15:51:21;;;;;;;1.27;1.17;;;21.30;86.70;;;;;;5007506;28;20556;-86
2023/07/21 15:53:50;;;;;;;1.03;0.97;;;21.30;87.50;;;;;;4999924;28;20201;-87
2023/07/21 15:57:01;;;;;;;2.70;1.40;;;21.20;88.10;;;;;;4998265;28;20433;-86
2023/07/21 15:59:30;;;;;;;2.20;1.30;;;21.20;88.70;;;;;;4999789;28;20421;-86
2023/07/21 16:02:01;;;;;;;1.80;1.23;;;21.20;88.40;;;;;;4998986;28;20476;-87
2023/07/21 16:04:29;;;;;;;1.33;1.20;;;21.10;88.60;;;;;;4999315;28;20428;-86
2023/07/21 16:07:00;;;;;;;3.13;1.63;;;21.10;89.00;;;;;;4999324;28;20424;-88
2023/07/21 16:09:25;;;;;;;1.03;1.03;;;21.10;89.00;;;;;;5000916;28;20425;-86
2023/07/21 16:11:51;;;;;;;1.00;0.90;;;21.00;89.40;;;;;;5002205;28;21081;-87
2023/07/21 16:14:16;;;;;;;1.23;1.13;;;21.00;90.40;;;;;;4996333;28;20208;-85
2023/07/21 16:16:42;;;;;;;2.60;1.93;;;21.00;89.60;;;;;;5010342;28;20173;-86
2023/07/21 16:19:10;;;;;;;1.10;1.00;;;20.90;90.80;;;;;;5004453;23;20234;-87
2023/07/21 16:21:39;;;;;;;1.43;1.33;;;20.90;91.40;;;;;;4965821;28;20297;-85
2023/07/21 16:24:04;;;;;;;1.30;1.20;;;20.90;91.80;;;;;;4972814;28;20892;-85
2023/07/21 16:26:30;;;;;;;1.33;1.30;;;20.80;91.90;;;;;;4972475;28;20725;-83
2023/07/21 16:28:58;;;;;;;1.63;1.23;;;20.80;92.40;;;;;;4964771;28;20206;-84
2023/07/21 16:31:23;;;;;;;1.30;1.20;;;20.80;92.90;;;;;;4953058;28;20631;-84
2023/07/21 16:33:52;;;;;;;1.00;0.90;;;20.70;94.20;;;;;;4953215;29;20509;-84
2023/07/21 16:36:18;;;;;;;2.10;1.40;;;20.70;94.20;;;;;;4955122;28;20328;-84
2023/07/21 16:38:44;;;;;;;1.47;1.43;;;20.60;94.20;;;;;;4951120;28;20805;-84
2023/07/21 16:41:09;;;;;;;3.67;2.43;;;20.60;94.60;;;;;;4957699;28;20186;-83
2023/07/21 16:43:35;;;;;;;2.03;1.30;;;20.50;94.10;;;;;;4949799;29;20842;-85
2023/07/21 16:46:00;;;;;;;1.30;1.20;;;20.40;94.10;;;;;;4953244;28;20274;-83
2023/07/21 16:48:26;;;;;;;2.50;1.47;;;20.30;93.40;;;;;;4952338;28;20649;-84
2023/07/21 16:50:52;;;;;;;1.60;1.33;;;20.10;92.90;;;;;;4950801;28;20215;-83
2023/07/21 16:53:17;;;;;;;2.30;1.40;;;19.90;94.40;;;;;;4949458;28;20182;-85